地図

経路データ

SID SEASON NUMBER BASIN SUBBASIN NAME ISO_TIME NATURE LAT LON WMO_WIND WMO_PRES WMO_AGENCY TRACK_TYPE DIST2LAND LANDFALL IFLAG USA_AGENCY USA_ATCF_ID USA_LAT USA_LON USA_RECORD USA_STATUS USA_WIND USA_PRES USA_SSHS USA_R34_NE USA_R34_SE USA_R34_SW USA_R34_NW USA_R50_NE USA_R50_SE USA_R50_SW USA_R50_NW USA_R64_NE USA_R64_SE USA_R64_SW USA_R64_NW USA_POCI USA_ROCI USA_RMW USA_EYE TOKYO_LAT TOKYO_LON TOKYO_GRADE TOKYO_WIND TOKYO_PRES TOKYO_R50_DIR TOKYO_R50_LONG TOKYO_R50_SHORT TOKYO_R30_DIR TOKYO_R30_LONG TOKYO_R30_SHORT TOKYO_LAND CMA_LAT CMA_LON CMA_CAT CMA_WIND CMA_PRES HKO_LAT HKO_LON HKO_CAT HKO_WIND HKO_PRES NEWDELHI_LAT NEWDELHI_LON NEWDELHI_GRADE NEWDELHI_WIND NEWDELHI_PRES NEWDELHI_CI NEWDELHI_DP NEWDELHI_POCI REUNION_LAT REUNION_LON REUNION_TYPE REUNION_WIND REUNION_PRES REUNION_TNUM REUNION_CI REUNION_RMW REUNION_R34_NE REUNION_R34_SE REUNION_R34_SW REUNION_R34_NW REUNION_R50_NE REUNION_R50_SE REUNION_R50_SW REUNION_R50_NW REUNION_R64_NE REUNION_R64_SE REUNION_R64_SW REUNION_R64_NW BOM_LAT BOM_LON BOM_TYPE BOM_WIND BOM_PRES BOM_TNUM BOM_CI BOM_RMW BOM_R34_NE BOM_R34_SE BOM_R34_SW BOM_R34_NW BOM_R50_NE BOM_R50_SE BOM_R50_SW BOM_R50_NW BOM_R64_NE BOM_R64_SE BOM_R64_SW BOM_R64_NW BOM_ROCI BOM_POCI BOM_EYE BOM_POS_METHOD BOM_PRES_METHOD NADI_LAT NADI_LON NADI_CAT NADI_WIND NADI_PRES WELLINGTON_LAT WELLINGTON_LON WELLINGTON_WIND WELLINGTON_PRES DS824_LAT DS824_LON DS824_STAGE DS824_WIND DS824_PRES TD9636_LAT TD9636_LON TD9636_STAGE TD9636_WIND TD9636_PRES TD9635_LAT TD9635_LON TD9635_WIND TD9635_PRES TD9635_ROCI NEUMANN_LAT NEUMANN_LON NEUMANN_CLASS NEUMANN_WIND NEUMANN_PRES MLC_LAT MLC_LON MLC_CLASS MLC_WIND MLC_PRES USA_GUST BOM_GUST BOM_GUST_PER REUNION_GUST REUNION_GUST_PER USA_SEAHGT USA_SEARAD_NE USA_SEARAD_SE USA_SEARAD_SW USA_SEARAD_NW STORM_SPEED STORM_DIR
1914249N16145 1914 30 WP MM NOT_NAMED 1914-09-06 10:00:00 NR 16.1000 144.800 main 2048 2048 __________O___ -1 16.1000 144.800 2 4 291
1914249N16145 1914 30 WP MM NOT_NAMED 1914-09-06 12:00:00 NR 16.1477 144.672 main 2049 2060 __________P___ -1 16.1477 144.672 2 4 291
1914249N16145 1914 30 WP MM NOT_NAMED 1914-09-06 15:00:00 NR 16.2201 144.466 main 2062 2062 __________P___ -1 16.2201 144.466 2 5 289
1914249N16145 1914 30 WP MM NOT_NAMED 1914-09-06 18:00:00 NR 16.2948 144.222 main 2066 2037 __________P___ -1 16.2948 144.222 2 5 286
1914249N16145 1914 30 WP MM NOT_NAMED 1914-09-06 21:00:00 NR 16.3730 143.919 main 2037 2027 __________P___ -1 16.3730 143.919 2 6 285
1914249N16145 1914 30 WP MM NOT_NAMED 1914-09-06 22:00:00 NR 16.4000 143.800 main 2027 1997 __________O___ -1 16.4000 143.800 3 8 283
1914249N16145 1914 30 WP MM NOT_NAMED 1914-09-07 00:00:00 NR 16.4559 143.535 main 1997 1956 __________P___ -1 16.4559 143.535 3 8 282
1914249N16145 1914 30 WP MM NOT_NAMED 1914-09-07 03:00:00 NR 16.5458 143.080 main 1956 1906 __________P___ -1 16.5458 143.080 3 9 282
1914249N16145 1914 30 WP MM NOT_NAMED 1914-09-07 06:00:00 NR 16.6457 142.582 main 1906 1856 __________P___ -1 16.6457 142.582 3 10 282
1914249N16145 1914 30 WP MM NOT_NAMED 1914-09-07 09:00:00 NR 16.7588 142.069 main 1859 1838 __________P___ -1 16.7588 142.069 3 10 283
1914249N16145 1914 30 WP MM NOT_NAMED 1914-09-07 10:00:00 NR 16.8000 141.900 main 1838 1810 __________O___ -1 16.8000 141.900 4 10 284
1914249N16145 1914 30 WP MM NOT_NAMED 1914-09-07 12:00:00 NR 16.8725 141.588 main 1810 1762 __________P___ -1 16.8725 141.588 4 9 285
1914249N16145 1914 30 WP MM NOT_NAMED 1914-09-07 15:00:00 NR 16.9938 141.121 main 1762 1714 __________P___ -1 16.9938 141.121 4 9 287
1914249N16145 1914 30 WP MM NOT_NAMED 1914-09-07 18:00:00 NR 17.1411 140.648 main 1714 1680 __________P___ -1 17.1411 140.648 4 10 290
1914249N16145 1914 30 WP MM NOT_NAMED 1914-09-07 21:00:00 NR 17.3272 140.165 main 1680 1663 __________P___ -1 17.3272 140.165 4 10 293
1914249N16145 1914 30 WP MM NOT_NAMED 1914-09-07 22:00:00 NR 17.4000 140.000 main 1663 1637 __________O___ -1 17.4000 140.000 4 11 295
1914249N16145 1914 30 WP MM NOT_NAMED 1914-09-08 00:00:00 NR 17.5551 139.659 main 1640 1589 __________P___ -1 17.5551 139.659 4 11 297
1914249N16145 1914 30 WP MM NOT_NAMED 1914-09-08 03:00:00 NR 17.8256 139.134 main 1589 1553 __________P___ -1 17.8256 139.134 4 12 300
1914249N16145 1914 30 WP MM NOT_NAMED 1914-09-08 06:00:00 NR 18.1356 138.603 main 1553 1518 __________P___ -1 18.1356 138.603 4 12 303
1914249N16145 1914 30 WP MM NOT_NAMED 1914-09-08 09:00:00 NR 18.4791 138.074 main 1523 1509 __________P___ -1 18.4791 138.074 4 12 305
1914249N16145 1914 30 WP MM NOT_NAMED 1914-09-08 10:00:00 NR 18.6000 137.900 main 1509 1491 __________O___ -1 18.6000 137.900 4 12 307
1914249N16145 1914 30 WP MM NOT_NAMED 1914-09-08 12:00:00 NR 18.8380 137.571 main 1491 1466 __________P___ -1 18.8380 137.571 4 12 309
1914249N16145 1914 30 WP MM NOT_NAMED 1914-09-08 15:00:00 NR 19.2205 137.084 main 1466 1404 __________P___ -1 19.2205 137.084 4 12 311
1914249N16145 1914 30 WP MM NOT_NAMED 1914-09-08 18:00:00 NR 19.6281 136.591 main 1404 1331 __________P___ -1 19.6281 136.591 4 13 311
1914249N16145 1914 30 WP MM NOT_NAMED 1914-09-08 21:00:00 NR 20.0547 136.078 main 1331 1313 __________P___ -1 20.0547 136.078 4 13 311
1914249N16145 1914 30 WP MM NOT_NAMED 1914-09-08 22:00:00 NR 20.2000 135.900 main 1313 1267 __________O___ -1 20.2000 135.900 4 14 309
1914249N16145 1914 30 WP MM NOT_NAMED 1914-09-09 00:00:00 NR 20.4913 135.512 main 1267 1203 __________P___ -1 20.4913 135.512 4 14 309
1914249N16145 1914 30 WP MM NOT_NAMED 1914-09-09 03:00:00 NR 20.9410 134.906 main 1203 1130 __________P___ -1 20.9410 134.906 4 15 308
1914249N16145 1914 30 WP MM NOT_NAMED 1914-09-09 06:00:00 NR 21.3973 134.290 main 1130 1059 __________P___ -1 21.3973 134.290 4 15 309
1914249N16145 1914 30 WP MM NOT_NAMED 1914-09-09 09:00:00 NR 21.8510 133.691 main 1059 1042 __________P___ -1 21.8510 133.691 4 14 309
1914249N16145 1914 30 WP MM NOT_NAMED 1914-09-09 10:00:00 NR 22.0000 133.500 main 1042 1002 __________O___ -1 22.0000 133.500 4 13 311
1914249N16145 1914 30 WP MM NOT_NAMED 1914-09-09 12:00:00 NR 22.2828 133.153 main 1002 947 __________P___ -1 22.2828 133.153 4 13 312
1914249N16145 1914 30 WP MM NOT_NAMED 1914-09-09 15:00:00 NR 22.7013 132.658 main 947 894 __________P___ -1 22.7013 132.658 4 12 313
1914249N16145 1914 30 WP MM NOT_NAMED 1914-09-09 18:00:00 NR 23.1214 132.174 main 894 832 __________P___ -1 23.1214 132.174 4 12 313
1914249N16145 1914 30 WP MM NOT_NAMED 1914-09-09 21:00:00 NR 23.5523 131.674 main 832 818 __________P___ -1 23.5523 131.674 4 13 313
1914249N16145 1914 30 WP MM NOT_NAMED 1914-09-09 22:00:00 NR 23.7000 131.500 main 818 782 __________O___ -1 23.7000 131.500 4 14 312
1914249N16145 1914 30 WP MM NOT_NAMED 1914-09-10 00:00:00 NR 24.0158 131.115 main 782 726 __________P___ -1 24.0158 131.115 4 15 312
1914249N16145 1914 30 WP MM NOT_NAMED 1914-09-10 03:00:00 NR 24.5024 130.513 main 726 674 __________P___ -1 24.5024 130.513 4 15 311
1914249N16145 1914 30 WP MM NOT_NAMED 1914-09-10 06:00:00 NR 24.9876 129.898 main 674 629 __________P___ -1 24.9876 129.898 4 15 311
1914249N16145 1914 30 WP MM NOT_NAMED 1914-09-10 09:00:00 NR 25.4526 129.295 main 629 620 __________P___ -1 25.4526 129.295 4 14 310
1914249N16145 1914 30 WP MM NOT_NAMED 1914-09-10 10:00:00 NR 25.6000 129.100 main 622 598 __________O___ -1 25.6000 129.100 4 13 310
1914249N16145 1914 30 WP MM NOT_NAMED 1914-09-10 12:00:00 NR 25.8806 128.723 main 601 578 __________P___ -1 25.8806 128.723 4 13 309
1914249N16145 1914 30 WP MM NOT_NAMED 1914-09-10 15:00:00 NR 26.2717 128.185 main 578 563 __________P___ -1 26.2717 128.185 4 12 309
1914249N16145 1914 30 WP MM NOT_NAMED 1914-09-10 18:00:00 NR 26.6363 127.670 main 568 551 __________P___ -1 26.6363 127.670 4 12 308
1914249N16145 1914 30 WP MM NOT_NAMED 1914-09-10 21:00:00 NR 26.9853 127.167 main 551 542 __________P___ -1 26.9853 127.167 4 11 308
1914249N16145 1914 30 WP MM NOT_NAMED 1914-09-10 22:00:00 NR 27.1000 127.000 main 542 __________O___ -1 27.1000 127.000 4 11 308

デジタル台風データ・検索

IBTrACS Databaseについて

本データベースは、米国NOAAが公開する1842年以降の世界の熱帯低気圧のベストトラックデータアーカイブInternational Best Track Archive for Climate Stewardship (IBTrACS)を、ウェブで閲覧しやすい形式に変換したものです。

最終更新日:2021-10-08